createdAt,value
2023-01-02T00:01:42.663Z,5.20
2023-01-02T00:04:12.860Z,6.20
2023-01-02T00:06:39.673Z,4.87
2023-01-02T00:09:07.757Z,4.88
2023-01-02T00:11:34.774Z,4.90
2023-01-02T00:14:01.455Z,5.35
2023-01-02T00:16:28.082Z,4.93
2023-01-02T00:18:54.757Z,4.93
2023-01-02T00:21:21.381Z,5.50
2023-01-02T00:23:47.962Z,5.82
2023-01-02T00:26:14.589Z,5.57
2023-01-02T00:28:41.490Z,5.45
2023-01-02T00:31:13.440Z,5.00
2023-01-02T00:33:40.221Z,6.03
2023-01-02T00:36:08.810Z,5.40
2023-01-02T00:38:38.201Z,5.65
2023-01-02T00:41:05.513Z,6.38
2023-01-02T00:43:32.230Z,5.10
2023-01-02T00:45:58.941Z,4.88
2023-01-02T00:48:25.591Z,5.82
2023-01-02T00:50:52.152Z,5.35
2023-01-02T00:53:19.112Z,5.25
2023-01-02T00:55:46.590Z,5.03
2023-01-02T00:58:13.494Z,5.93
2023-01-02T01:00:40.315Z,6.15
2023-01-02T01:03:07.137Z,5.47
2023-01-02T01:05:33.778Z,5.70
2023-01-02T01:08:00.669Z,5.80
2023-01-02T01:10:27.319Z,5.65
2023-01-02T01:12:54.059Z,5.68
2023-01-02T01:15:20.917Z,5.72
2023-01-02T01:17:47.547Z,5.50
2023-01-02T01:20:14.287Z,5.50
2023-01-02T01:22:40.968Z,5.40
2023-01-02T01:25:07.989Z,5.20
2023-01-02T01:27:34.633Z,5.00
2023-01-02T01:30:01.259Z,5.85
2023-01-02T01:32:29.338Z,5.57
2023-01-02T01:34:55.964Z,5.55
2023-01-02T01:37:22.562Z,5.88
2023-01-02T01:39:52.675Z,5.88
2023-01-02T01:42:22.096Z,5.60
2023-01-02T01:44:54.457Z,5.47
2023-01-02T01:47:33.107Z,5.82
2023-01-02T01:50:18.153Z,5.78
2023-01-02T01:52:51.112Z,5.40
2023-01-02T01:55:44.100Z,6.25
2023-01-02T01:58:18.084Z,5.10
2023-01-02T02:00:45.194Z,5.30
2023-01-02T02:03:17.179Z,5.88
2023-01-02T02:05:45.211Z,5.63
2023-01-02T02:08:26.014Z,5.45
2023-01-02T02:10:54.736Z,5.53
2023-01-02T02:13:21.596Z,5.50
2023-01-02T02:16:06.738Z,5.53
2023-01-02T02:19:04.347Z,5.20
2023-01-02T02:21:37.956Z,5.60
2023-01-02T02:24:30.871Z,5.30
2023-01-02T02:27:29.709Z,5.47
2023-01-02T02:30:08.133Z,5.47
2023-01-02T02:32:37.785Z,6.45
2023-01-02T02:35:18.895Z,5.82
2023-01-02T02:37:51.374Z,5.63
2023-01-02T02:40:38.804Z,6.10
2023-01-02T02:43:24.211Z,5.68
2023-01-02T02:46:33.813Z,5.72
2023-01-02T02:49:25.284Z,5.88
2023-01-02T02:52:05.837Z,6.00
2023-01-02T02:55:07.076Z,5.10
2023-01-02T02:57:36.036Z,5.32
2023-01-02T03:00:05.673Z,5.25
2023-01-02T03:02:32.366Z,5.43
2023-01-02T03:05:03.183Z,4.13
2023-01-02T03:07:49.216Z,5.20
2023-01-02T03:10:41.124Z,4.97
2023-01-02T03:13:48.144Z,4.57
2023-01-02T03:16:27.052Z,4.30
2023-01-02T03:19:07.091Z,4.80
2023-01-02T03:21:36.644Z,4.32
2023-01-02T03:24:07.708Z,4.18
2023-01-02T03:26:36.287Z,4.85
2023-01-02T03:29:09.063Z,4.63
2023-01-02T03:31:40.769Z,4.17
2023-01-02T03:34:13.499Z,4.43
2023-01-02T03:36:42.880Z,4.38
2023-01-02T03:39:21.577Z,4.38
2023-01-02T03:41:57.848Z,4.07
2023-01-02T03:44:28.736Z,4.57
2023-01-02T03:47:08.635Z,4.65
2023-01-02T03:49:41.021Z,3.85
2023-01-02T03:52:07.664Z,4.10
2023-01-02T03:54:34.452Z,3.90
2023-01-02T03:57:12.663Z,4.10
2023-01-02T03:59:58.964Z,3.95
2023-01-02T04:02:52.937Z,4.68
2023-01-02T04:05:28.780Z,3.72
2023-01-02T04:08:07.739Z,3.78
2023-01-02T04:10:37.147Z,3.90
2023-01-02T04:13:13.387Z,3.58
2023-01-02T04:15:41.581Z,4.18
2023-01-02T04:18:12.198Z,3.65
2023-01-02T04:20:43.215Z,3.83
2023-01-02T04:23:16.736Z,3.70
2023-01-02T04:25:50.021Z,4.22
2023-01-02T04:28:23.573Z,3.65
2023-01-02T04:31:05.390Z,4.00
2023-01-02T04:33:38.839Z,4.25
2023-01-02T04:36:13.589Z,3.60
2023-01-02T04:38:42.297Z,3.72
2023-01-02T04:41:10.047Z,4.25
2023-01-02T04:43:36.657Z,4.25
2023-01-02T04:46:03.449Z,4.28
2023-01-02T04:48:30.100Z,3.97
2023-01-02T04:50:56.740Z,4.05
2023-01-02T04:53:23.433Z,4.63
2023-01-02T04:55:56.402Z,4.30
2023-01-02T04:58:23.282Z,4.00
2023-01-02T05:00:49.903Z,3.97
2023-01-02T05:03:16.542Z,4.72
2023-01-02T05:05:43.194Z,4.85
2023-01-02T05:08:15.905Z,4.65
2023-01-02T05:10:43.094Z,4.45
2023-01-02T05:13:09.794Z,4.67
2023-01-02T05:15:36.529Z,4.00
2023-01-02T05:18:03.339Z,4.32
2023-01-02T05:20:29.912Z,4.60
2023-01-02T05:23:15.494Z,4.60
2023-01-02T05:25:42.085Z,5.00
2023-01-02T05:28:08.761Z,4.10
2023-01-02T05:30:38.179Z,5.25
2023-01-02T05:33:04.824Z,4.50
2023-01-02T05:35:33.238Z,5.07
2023-01-02T05:38:00.312Z,4.53
2023-01-02T05:40:26.925Z,4.28
2023-01-02T05:42:53.585Z,4.95
2023-01-02T05:45:20.164Z,5.32
2023-01-02T05:47:46.730Z,5.25
2023-01-02T05:50:13.360Z,5.23
2023-01-02T05:52:45.143Z,2.85
2023-01-02T05:55:12.665Z,1.92
2023-01-02T05:57:39.969Z,1.52
2023-01-02T06:00:07.225Z,1.70
2023-01-02T06:02:34.179Z,1.43
2023-01-02T06:05:00.839Z,1.40
2023-01-02T06:07:27.464Z,1.55
2023-01-02T06:09:54.108Z,1.40
2023-01-02T06:12:20.684Z,1.90
2023-01-02T06:14:47.311Z,1.60
2023-01-02T06:17:13.943Z,1.52
2023-01-02T06:19:40.780Z,2.08
2023-01-02T06:22:07.391Z,1.88
2023-01-02T06:24:33.955Z,2.22
2023-01-02T06:27:00.527Z,2.00
2023-01-02T06:29:27.129Z,2.33
2023-01-02T06:31:53.826Z,2.30
2023-01-02T06:34:20.527Z,2.63
2023-01-02T06:36:47.170Z,2.88
2023-01-02T06:39:13.775Z,2.60
2023-01-02T06:41:40.330Z,2.50
2023-01-02T06:44:07.007Z,2.65
2023-01-02T06:46:33.672Z,2.70
2023-01-02T06:49:00.242Z,2.85
2023-01-02T06:51:26.877Z,3.30
2023-01-02T06:53:53.584Z,3.00
2023-01-02T06:56:20.915Z,3.40
2023-01-02T06:58:47.839Z,3.00
2023-01-02T07:01:17.240Z,3.50
2023-01-02T07:03:44.185Z,3.50
2023-01-02T07:06:14.155Z,3.38
2023-01-02T07:08:41.868Z,4.13
2023-01-02T07:11:12.961Z,3.33
2023-01-02T07:13:41.087Z,3.03
2023-01-02T07:16:09.883Z,3.07
2023-01-02T07:18:37.646Z,2.80
2023-01-02T07:21:05.660Z,2.90
2023-01-02T07:23:32.348Z,2.60
2023-01-02T07:26:01.214Z,2.83
2023-01-02T07:28:28.759Z,2.87
2023-01-02T07:30:59.675Z,2.70
2023-01-02T07:33:28.594Z,2.33
2023-01-02T07:35:59.118Z,2.58
2023-01-02T07:38:26.084Z,2.50
2023-01-02T07:40:52.686Z,2.63
2023-01-02T07:43:19.926Z,2.78
2023-01-02T07:45:50.285Z,2.67
2023-01-02T07:48:17.911Z,2.40
2023-01-02T07:50:44.659Z,2.85
2023-01-02T07:53:11.281Z,2.50
2023-01-02T07:55:37.905Z,2.40
2023-01-02T07:58:04.614Z,2.22
2023-01-02T08:00:31.257Z,2.00
2023-01-02T08:02:57.881Z,1.80
2023-01-02T08:05:24.493Z,2.00
2023-01-02T08:07:51.168Z,1.83
2023-01-02T08:10:17.841Z,2.13
2023-01-02T08:12:44.538Z,2.20
2023-01-02T08:15:11.529Z,2.03
2023-01-02T08:17:38.350Z,2.30
2023-01-02T08:20:12.869Z,2.60
2023-01-02T08:22:40.460Z,2.38
2023-01-02T08:25:15.840Z,2.20
2023-01-02T08:30:48.873Z,1.87
2023-01-02T08:33:16.253Z,2.28
2023-01-02T08:35:43.826Z,2.63
2023-01-02T08:38:10.610Z,2.85
2023-01-02T08:40:38.306Z,2.95
2023-01-02T08:45:54.335Z,2.78
2023-01-02T08:48:21.594Z,3.58
2023-01-02T08:50:55.086Z,2.88
2023-01-02T08:53:32.920Z,3.60
2023-01-02T08:56:20.984Z,3.40
2023-01-02T08:59:02.128Z,3.05
2023-01-02T09:01:37.678Z,2.80
2023-01-02T09:04:12.074Z,2.88
2023-01-02T09:09:52.936Z,2.40
2023-01-02T09:18:41.293Z,3.25
2023-01-02T09:26:33.986Z,3.13
2023-01-02T09:29:03.993Z,3.17
2023-01-02T09:34:33.770Z,3.70
2023-01-02T09:37:10.838Z,3.80
2023-01-02T09:39:42.177Z,4.35
2023-01-02T09:42:16.150Z,3.90
2023-01-02T09:44:58.735Z,3.42
2023-01-02T09:47:29.949Z,3.35
2023-01-02T09:50:03.955Z,3.70
2023-01-02T09:52:30.832Z,4.30
2023-01-02T09:55:12.649Z,3.88
2023-01-02T09:57:51.352Z,3.80
2023-01-02T10:00:23.581Z,3.40
2023-01-02T10:03:28.453Z,3.40
2023-01-02T10:06:18.936Z,3.00
2023-01-02T10:09:14.472Z,2.90
2023-01-02T10:11:49.973Z,3.13
2023-01-02T10:14:44.540Z,2.10
2023-01-02T10:17:14.106Z,1.83
2023-01-02T10:19:43.390Z,2.03
2023-01-02T10:22:27.952Z,2.20
2023-01-02T10:25:26.145Z,1.95
2023-01-02T10:28:15.577Z,1.80
2023-01-02T10:31:09.618Z,1.93
2023-01-02T10:34:04.638Z,1.75
2023-01-02T10:36:45.598Z,1.67
2023-01-02T10:42:21.040Z,2.15
2023-01-02T10:44:51.357Z,1.30
2023-01-02T10:47:45.197Z,1.10
2023-01-02T10:50:26.954Z,1.50
2023-01-02T10:53:04.660Z,1.10
2023-01-02T10:55:39.219Z,2.03
2023-01-02T10:58:25.314Z,1.60
2023-01-02T11:01:18.616Z,1.52
2023-01-02T11:03:54.655Z,1.55
2023-01-02T11:06:29.113Z,1.40
2023-01-02T11:08:58.122Z,1.80
2023-01-02T11:11:26.265Z,1.40
2023-01-02T11:13:57.230Z,2.03
2023-01-02T11:16:28.080Z,1.30
2023-01-02T11:18:58.335Z,1.65
2023-01-02T11:21:40.849Z,2.05
2023-01-02T11:24:19.464Z,1.73
2023-01-02T11:26:48.420Z,1.50
2023-01-02T11:29:28.918Z,1.45
2023-01-02T11:31:58.908Z,1.73
2023-01-02T11:34:30.754Z,1.70
2023-01-02T11:37:13.496Z,1.63
2023-01-02T11:39:41.351Z,1.70
2023-01-02T11:42:50.471Z,1.58
2023-01-02T11:45:18.594Z,1.40
2023-01-02T11:47:58.378Z,1.20
2023-01-02T11:50:31.171Z,1.40
2023-01-02T11:53:12.666Z,2.10
2023-01-02T11:55:47.448Z,1.23
2023-01-02T11:58:32.908Z,1.58
2023-01-02T12:01:20.900Z,1.38
2023-01-02T12:03:48.153Z,1.40
2023-01-02T12:06:34.820Z,1.65
2023-01-02T12:09:21.496Z,1.90
2023-01-02T12:12:18.749Z,1.63
2023-01-02T12:15:10.014Z,1.40
2023-01-02T12:18:01.959Z,1.80
2023-01-02T12:21:07.222Z,1.65
2023-01-02T12:24:06.617Z,1.50
2023-01-02T12:26:47.767Z,1.45
2023-01-02T12:29:48.252Z,1.77
2023-01-02T12:32:49.811Z,1.67
2023-01-02T12:35:42.834Z,1.92
2023-01-02T12:38:18.048Z,2.20
2023-01-02T12:40:57.026Z,1.55
2023-01-02T12:43:39.630Z,1.92
2023-01-02T12:46:31.204Z,1.43
2023-01-02T12:49:27.999Z,2.20
2023-01-02T12:52:23.579Z,2.15
2023-01-02T12:55:18.160Z,1.98
2023-01-02T12:57:58.344Z,1.88
2023-01-02T13:00:43.457Z,2.00
2023-01-02T13:03:52.682Z,2.92
2023-01-02T13:06:46.881Z,2.20
2023-01-02T13:09:35.768Z,2.45
2023-01-02T13:12:14.555Z,2.25
2023-01-02T13:14:54.869Z,2.53
2023-01-02T13:17:43.719Z,3.05
2023-01-02T13:20:38.476Z,2.33
2023-01-02T13:23:20.706Z,2.38
2023-01-02T13:25:56.199Z,2.80
2023-01-02T13:34:22.033Z,3.30
2023-01-02T13:36:51.893Z,4.82
2023-01-02T13:39:22.501Z,4.10
2023-01-02T13:42:33.546Z,4.50
2023-01-02T13:45:19.963Z,4.60
2023-01-02T13:48:05.969Z,4.57
2023-01-02T13:50:39.920Z,4.35
2023-01-02T14:10:41.458Z,4.40
2023-01-02T14:17:17.194Z,4.72
2023-01-02T14:20:08.485Z,5.63
2023-01-02T14:23:07.417Z,5.55
2023-01-02T14:25:47.929Z,6.45
2023-01-02T14:28:24.923Z,6.50
2023-01-02T14:30:52.087Z,6.60
2023-01-02T14:33:32.698Z,7.20
2023-01-02T14:36:08.606Z,6.88
2023-01-02T14:38:42.684Z,7.63
2023-01-02T14:42:09.304Z,7.27
2023-01-02T14:44:51.884Z,7.53
2023-01-02T14:47:37.509Z,7.18
2023-01-02T14:53:27.429Z,7.20
2023-01-02T14:56:02.768Z,7.00
2023-01-02T14:58:51.298Z,7.75
2023-01-02T15:05:06.434Z,7.10
2023-01-02T15:07:37.522Z,7.10
2023-01-02T15:10:16.180Z,6.67
2023-01-02T15:13:07.349Z,7.38
2023-01-02T15:15:58.536Z,7.40
2023-01-02T15:18:43.311Z,5.97
2023-01-02T15:21:14.428Z,6.68
2023-01-02T15:23:47.999Z,5.97
2023-01-02T15:26:33.585Z,5.68
2023-01-02T15:29:07.260Z,6.10
2023-01-02T15:31:52.333Z,6.10
2023-01-02T15:34:36.029Z,6.22
2023-01-02T15:37:05.907Z,6.53
2023-01-02T15:39:47.865Z,5.47
2023-01-02T15:42:43.405Z,5.88
2023-01-02T15:45:15.258Z,4.47
2023-01-02T15:47:48.078Z,4.03
2023-01-02T15:50:23.834Z,3.07
2023-01-02T15:52:59.159Z,2.40
2023-01-02T15:55:27.505Z,3.00
2023-01-02T15:57:54.930Z,2.60
2023-01-02T16:00:34.254Z,2.00
2023-01-02T16:03:01.149Z,2.00
2023-01-02T16:05:28.685Z,2.30
2023-01-02T16:07:57.542Z,2.10
2023-01-02T16:10:26.905Z,1.90
2023-01-02T16:13:36.741Z,2.53
2023-01-02T16:16:16.626Z,1.90
2023-01-02T16:18:48.098Z,1.80
2023-01-02T16:21:16.310Z,1.90
2023-01-02T16:23:49.966Z,1.90
2023-01-02T16:26:18.595Z,2.10
2023-01-02T16:28:45.412Z,1.93
2023-01-02T16:31:14.887Z,1.98
2023-01-02T16:33:42.234Z,2.50
2023-01-02T16:36:15.130Z,1.95
2023-01-02T16:38:52.285Z,2.30
2023-01-02T16:41:45.138Z,2.90
2023-01-02T16:44:16.915Z,2.15
2023-01-02T16:46:53.425Z,2.85
2023-01-02T16:49:23.150Z,2.40
2023-01-02T16:51:54.259Z,2.63
2023-01-02T16:54:21.078Z,2.70
2023-01-02T16:56:48.276Z,3.15
2023-01-02T16:59:15.502Z,2.80
2023-01-02T17:01:42.688Z,2.97
2023-01-02T17:04:16.869Z,2.67
2023-01-02T17:06:43.746Z,3.00
2023-01-02T17:09:10.327Z,2.72
2023-01-02T17:11:37.877Z,3.70
2023-01-02T17:14:05.962Z,2.90
2023-01-02T17:16:32.842Z,2.63
2023-01-02T17:19:00.084Z,2.60
2023-01-02T17:21:32.506Z,2.70
2023-01-02T17:23:59.732Z,2.50
2023-01-02T17:26:26.625Z,2.35
2023-01-02T17:28:53.650Z,2.70
2023-01-02T17:31:25.490Z,2.47
2023-01-02T17:33:52.799Z,2.67
2023-01-02T17:36:19.524Z,2.33
2023-01-02T17:38:46.286Z,2.30
2023-01-02T17:41:12.970Z,2.95
2023-01-02T17:43:39.717Z,2.30
2023-01-02T17:46:58.086Z,2.70
2023-01-02T17:49:14.644Z,2.40
2023-01-02T17:51:41.451Z,2.53
2023-01-02T17:54:08.149Z,2.22
2023-01-02T17:56:34.942Z,2.50
2023-01-02T17:59:01.603Z,2.60
2023-01-02T18:01:28.309Z,3.05
2023-01-02T18:03:56.157Z,3.00
2023-01-02T18:06:22.774Z,2.90
2023-01-02T18:08:51.010Z,2.70
2023-01-02T18:11:18.072Z,3.33
2023-01-02T18:13:53.452Z,3.63
2023-01-02T18:16:27.029Z,3.80
2023-01-02T18:18:53.684Z,2.92
2023-01-02T18:21:22.954Z,3.73
2023-01-02T18:23:54.603Z,3.22
2023-01-02T18:26:21.422Z,3.60
2023-01-02T18:28:51.601Z,3.05
2023-01-02T18:31:20.703Z,3.40
2023-01-02T18:33:47.709Z,3.30
2023-01-02T18:36:20.016Z,3.03
2023-01-02T18:38:49.736Z,3.50
2023-01-02T18:41:24.738Z,5.53
2023-01-02T18:43:56.309Z,3.50
2023-01-02T18:47:03.571Z,3.50
2023-01-02T18:49:26.664Z,3.40
2023-01-02T18:52:11.820Z,4.50
2023-01-02T18:54:46.730Z,3.70
2023-01-02T18:57:19.054Z,3.55
2023-01-02T18:59:53.757Z,3.50
2023-01-02T19:02:30.947Z,3.63
2023-01-02T19:04:58.072Z,5.05
2023-01-02T19:07:29.277Z,3.97
2023-01-02T19:10:24.910Z,4.88
2023-01-02T19:13:07.992Z,4.80
2023-01-02T19:15:48.556Z,4.38
2023-01-02T19:18:15.495Z,4.72
2023-01-02T19:20:43.889Z,4.68
2023-01-02T19:23:29.878Z,4.55
2023-01-02T19:26:07.297Z,4.50
2023-01-02T19:28:38.564Z,4.70
2023-01-02T19:31:13.357Z,4.90
2023-01-02T19:33:43.639Z,4.75
2023-01-02T19:36:18.403Z,4.95
2023-01-02T19:38:47.918Z,4.80
2023-01-02T19:41:14.611Z,5.20
2023-01-02T19:43:41.340Z,5.82
2023-01-02T19:46:08.241Z,5.22
2023-01-02T19:48:34.989Z,5.43
2023-01-02T19:51:01.663Z,4.53
2023-01-02T19:53:28.441Z,4.95
2023-01-02T19:55:55.201Z,5.50
2023-01-02T19:58:21.876Z,5.43
2023-01-02T20:00:48.583Z,5.70
2023-01-02T20:03:15.293Z,6.10
2023-01-02T20:05:42.030Z,6.22
2023-01-02T20:08:08.833Z,6.15
2023-01-02T20:10:35.577Z,6.40
2023-01-02T20:13:02.306Z,6.13
2023-01-02T20:15:29.146Z,5.90
2023-01-02T20:17:56.012Z,5.90
2023-01-02T20:20:25.296Z,5.80
2023-01-02T20:22:52.325Z,6.47
2023-01-02T20:25:24.080Z,6.97
2023-01-02T20:27:51.966Z,7.13
2023-01-02T20:30:23.876Z,7.43
2023-01-02T20:32:51.025Z,7.65
2023-01-02T20:35:17.865Z,7.30
2023-01-02T20:37:44.548Z,7.35
2023-01-02T20:40:11.683Z,7.17
2023-01-02T20:42:38.418Z,7.70
2023-01-02T20:45:06.533Z,8.18
2023-01-02T20:47:35.330Z,7.40
2023-01-02T20:50:02.522Z,8.23
2023-01-02T20:52:29.167Z,7.90
2023-01-02T20:54:55.938Z,8.13
2023-01-02T20:57:22.735Z,8.10
2023-01-02T20:59:49.441Z,8.38
2023-01-02T21:02:16.390Z,9.68
2023-01-02T21:04:43.160Z,9.60
2023-01-02T21:07:09.843Z,9.43
2023-01-02T21:09:36.542Z,10.10
2023-01-02T21:12:03.721Z,8.23
2023-01-02T21:14:37.201Z,9.98
2023-01-02T21:17:04.214Z,9.27
2023-01-02T21:19:31.135Z,9.48
2023-01-02T21:21:58.052Z,9.98
2023-01-02T21:24:24.810Z,10.77
2023-01-02T21:26:51.621Z,10.95
2023-01-02T21:29:18.427Z,11.27
2023-01-02T21:31:46.842Z,11.60
2023-01-02T21:34:14.101Z,12.05
2023-01-02T21:36:41.097Z,11.30
2023-01-02T21:39:10.629Z,12.77
2023-01-02T21:41:56.061Z,11.83
2023-01-02T21:44:22.733Z,11.32
2023-01-02T21:46:49.471Z,12.45
2023-01-02T21:49:16.117Z,11.57
2023-01-02T21:51:42.718Z,12.45
2023-01-02T21:54:09.390Z,13.03
2023-01-02T21:56:36.025Z,11.82
2023-01-02T21:59:03.443Z,12.35
2023-01-02T22:01:30.161Z,12.55
2023-01-02T22:03:57.457Z,11.95
2023-01-02T22:06:24.230Z,12.50
2023-01-02T22:08:50.913Z,12.60
2023-01-02T22:11:36.216Z,11.55
2023-01-02T22:14:06.028Z,11.52
2023-01-02T22:16:33.405Z,11.52
2023-01-02T22:19:00.893Z,11.97
2023-01-02T22:21:28.277Z,12.13
2023-01-02T22:23:54.884Z,11.65
2023-01-02T22:26:21.675Z,12.25
2023-01-02T22:28:49.255Z,11.77
2023-01-02T22:31:16.203Z,11.47
2023-01-02T22:33:42.962Z,11.57
2023-01-02T22:36:09.968Z,10.82
2023-01-02T22:38:43.868Z,10.90
2023-01-02T22:41:22.107Z,11.02
2023-01-02T22:43:51.329Z,11.07
2023-01-02T22:46:25.190Z,9.65
2023-01-02T22:48:52.636Z,10.88
2023-01-02T22:51:26.003Z,10.07
2023-01-02T22:54:03.571Z,10.27
2023-01-02T22:56:31.095Z,10.20
2023-01-02T22:58:57.887Z,9.57
2023-01-02T23:01:30.700Z,10.80
2023-01-02T23:03:57.758Z,10.88
2023-01-02T23:06:24.953Z,11.65
2023-01-02T23:08:52.605Z,10.93
2023-01-02T23:11:25.528Z,10.80
2023-01-02T23:13:56.529Z,10.13
2023-01-02T23:16:44.470Z,10.02
2023-01-02T23:19:14.949Z,10.07
2023-01-02T23:21:58.890Z,10.07
2023-01-02T23:24:32.162Z,9.82
2023-01-02T23:27:03.273Z,9.27
2023-01-02T23:29:30.123Z,9.73
2023-01-02T23:31:57.581Z,8.57
2023-01-02T23:34:26.273Z,8.63
2023-01-02T23:36:55.083Z,9.00
2023-01-02T23:39:24.607Z,9.13
2023-01-02T23:41:52.191Z,8.80
2023-01-02T23:44:19.837Z,9.13
2023-01-02T23:46:47.317Z,8.97
2023-01-02T23:49:16.511Z,8.23
2023-01-02T23:51:44.693Z,8.40
2023-01-02T23:54:14.340Z,7.78
2023-01-02T23:56:42.794Z,7.30
2023-01-02T23:59:13.544Z,7.90
